Main page
METAR-TAF:

METAR-TAF

Airports :

Yap, Yap Island, Micronesia

Yap International Airport

latitude: 09-29N, longitude: 138-05E, elevation: 28 m

Current weather observation

The report was made 50 minutes ago, at 02:51 UTC
Calm wind
Temperature 29°C
Humidity 79%
Pressure 1008 hPa
Visibility: 19.3 km
Few clouds at a height of 1600 ft, Towering cumulus.
Scattered clouds at a height of 12000 ft
Overcast at a height of 30000 ft

METAR: PTYA 200251Z 00000KT 12SM FEW016TCU SCT120 OVC300 29/25 A2976 RMK TCU N AND S SLP078 8/271 T02910253 57022

Time: 13:41 (03:41 UTC)

Forecast

The report was made 4 hours and 1 minutes ago, at 23:40 UTC
Forecast valid from 20 at 00 UTC to 20 at 24 UTC
Wind 6 kt from the North/Northwest
Visibility: 10 km
Scattered clouds at a height of 1600 ft
Broken clouds at a height of 12000 ft
showers in vicinity

TAF: PTYA 192340Z 2000/2024 33006KT P6SM VCSH SCT016 BKN120

Weather observations and forecasts of more than 4000 airports (METAR and TAF reports).

The available stations are represented by yellow and red dots on the map.

Hover mouse over dot to see the name of the station.

Then click to see weather observations and forecasts.

To change the map : click on the green buttons with a black cross to zoom in, on the green button with a dash to zoom out, or on the green arrows for adjacent maps.


METAR-TAF: